Tuesday, May 24, 2016, 9:40 AM EDT

KOKV, Winchester Regional

Location: Winchester, VA, United States Lat: 39.15
Local Time: 9:40 AM EDT (13:40 GMT) Lon: -78.15
Time Zone: US/Eastern Elev: 728 ft

Show me the last for .
Show Decoded

2016-05-24 09:15 METAR KOKV 241315Z AUTO 30009KT 10SM CLR 21/12 A3006 RMK AO2 =
2016-05-24 08:55 METAR KOKV 241255Z AUTO 29006KT 10SM CLR 20/12 A3005 RMK AO2 =
2016-05-24 08:35 METAR KOKV 241235Z AUTO 27004KT 10SM CLR 18/13 A3005 RMK AO2 =
2016-05-24 08:15 METAR KOKV 241215Z AUTO 00000KT 10SM CLR 17/13 A3004 RMK AO2 =
2016-05-24 07:55 METAR KOKV 241155Z AUTO 22003KT 10SM CLR 15/13 A3003 RMK AO2 =
2016-05-24 07:35 METAR KOKV 241135Z AUTO 00000KT 10SM CLR 15/13 A3003 RMK AO2 =
2016-05-24 07:15 METAR KOKV 241115Z AUTO 00000KT 10SM CLR 13/12 A3002 RMK AO2 =
2016-05-24 06:55 METAR KOKV 241055Z AUTO 00000KT 10SM SCT095 12/11 A3001 RMK AO2 =
2016-05-24 06:35 METAR KOKV 241035Z AUTO 00000KT 10SM SCT095 11/11 A3000 RMK AO2 =
2016-05-24 06:15 METAR KOKV 241015Z AUTO 00000KT 10SM CLR 11/10 A3000 RMK AO2 =
2016-05-24 05:55 METAR KOKV 240955Z AUTO 00000KT 10SM CLR 11/10 A3000 RMK AO2 =
2016-05-24 05:35 METAR KOKV 240935Z AUTO 00000KT 10SM SCT120 11/11 A3000 RMK AO2 =
2016-05-24 05:15 METAR KOKV 240915Z AUTO 00000KT 10SM BKN120 11/10 A2999 RMK AO2 =
2016-05-24 04:55 METAR KOKV 240855Z AUTO 00000KT 1 3/4SM BR BKN110 11/10 A2998 RMK AO2 VIS 1/2V5
                 =
2016-05-24 04:35 METAR KOKV 240835Z AUTO 00000KT 1 1/4SM BR VV007 11/10 A2998 RMK AO2 VIS 1/2V5 =
2016-05-24 04:15 METAR KOKV 240815Z AUTO 00000KT 2 1/2SM BR SCT120 11/11 A2998 RMK AO2 =
2016-05-24 03:55 METAR KOKV 240755Z AUTO 00000KT 5SM BR BKN120 12/11 A2997 RMK AO2 =
2016-05-24 03:35 METAR KOKV 240735Z AUTO 00000KT 2 1/2SM BR BKN120 12/11 A2997 RMK AO2 VIS 1/2V5
                 =
2016-05-24 03:15 METAR KOKV 240715Z AUTO 00000KT 7SM SCT120 12/11 A2997 RMK AO2 =
2016-05-24 02:55 METAR KOKV 240655Z AUTO 00000KT 10SM SCT120 12/11 A2997 RMK AO2 =
2016-05-24 02:35 METAR KOKV 240635Z AUTO 00000KT 10SM CLR 13/11 RMK AO2 =
2016-05-24 02:15 METAR KOKV 240615Z AUTO 00000KT 10SM CLR 13/11 A2997 RMK AO2 =
2016-05-24 01:55 METAR KOKV 240555Z AUTO 24005KT 10SM SCT080 13/12 A2997 RMK AO2 =
2016-05-24 01:35 METAR KOKV 240535Z AUTO 26006KT 10SM SCT080 SCT120 13/12 A2997 RMK AO2 =
2016-05-24 01:15 METAR KOKV 240515Z AUTO 25005KT 10SM SCT120 13/12 A2997 RMK AO2 =
2016-05-24 00:55 METAR KOKV 240455Z AUTO 00000KT 10SM BKN120 13/12 A2998 RMK AO2 =
2016-05-24 00:35 METAR KOKV 240435Z AUTO 00000KT 10SM BKN120 14/12 A2998 RMK AO2 =
2016-05-24 00:15 METAR KOKV 240415Z AUTO 26003KT 10SM SCT090 OVC120 14/12 A2998 RMK AO2 =
2016-05-23 23:55 METAR KOKV 240355Z AUTO 00000KT 10SM BKN090 OVC110 15/12 A2999 RMK AO2 =
2016-05-23 23:35 METAR KOKV 240335Z AUTO 17005KT 10SM OVC090 15/12 A2998 RMK AO2 =
2016-05-23 23:15 METAR KOKV 240315Z AUTO 18006KT 10SM SCT070 OVC090 15/12 A2998 RMK AO2 =
2016-05-23 22:55 METAR KOKV 240255Z AUTO 22006KT 10SM -RA SCT080 OVC090 15/12 A2998 RMK AO2 P0005
                 =
2016-05-23 22:35 METAR KOKV 240235Z AUTO 25008KT 10SM -RA SCT022 SCT050 OVC080 15/12 A2998 RMK
                 AO2 P0004 =
2016-05-23 22:15 METAR KOKV 240215Z AUTO 29008KT 7SM RA SCT021 BKN070 OVC080 15/12 A3000 RMK AO2
                 P0003 =
2016-05-23 21:55 METAR KOKV 240155Z AUTO 27004KT 10SM -RA BKN070 OVC090 16/12 A3002 RMK AO2 =
2016-05-23 21:35 METAR KOKV 240135Z AUTO 35005KT 10SM -RA SCT060 SCT070 OVC085 16/11 A3002 RMK
                 AO2 =
2016-05-23 21:15 METAR KOKV 240115Z AUTO 01005KT 10SM SCT050 SCT070 OVC085 15/11 A2999 RMK AO2 =
2016-05-23 20:55 METAR KOKV 240055Z AUTO 00000KT 10SM -RA SCT022 SCT047 OVC085 16/11 A2997 RMK
                 AO2 =
2016-05-23 20:35 METAR KOKV 240035Z AUTO 00000KT 10SM OVC085 17/11 A2997 RMK AO2 =
2016-05-23 20:15 METAR KOKV 240015Z AUTO 15003KT 10SM OVC085 17/11 A2997 RMK AO2 =
2016-05-23 19:55 METAR KOKV 232355Z AUTO 11003KT 10SM BKN085 OVC120 17/11 A2996 RMK AO2 =
2016-05-23 19:35 METAR KOKV 232335Z AUTO 00000KT 10SM SCT085 BKN110 18/11 A2996 RMK AO2 =
2016-05-23 19:15 METAR KOKV 232315Z AUTO 00000KT 10SM BKN110 18/10 A2995 RMK AO2 =
2016-05-23 18:55 METAR KOKV 232255Z AUTO 00000KT 10SM SCT044 SCT070 BKN100 18/10 A2995 RMK AO2
                 LTG DSNT SE AND S =
2016-05-23 18:35 METAR KOKV 232235Z AUTO 01010G15KT 340V050 10SM SCT070 SCT090 BKN120 20/10 A2995
                 RMK AO2 =
2016-05-23 18:15 METAR KOKV 232215Z AUTO 36006KT 10SM BKN070 BKN090 BKN120 20/08 A2994 RMK AO2
                 LTG DSNT NW =
2016-05-23 17:55 METAR KOKV 232155Z AUTO 35010G15KT 10SM BKN070 BKN080 22/09 A2993 RMK AO2 LTG
                 DSNT E =
2016-05-23 17:35 METAR KOKV 232135Z AUTO 35005KT 10SM VCTS CLR 23/10 A2993 RMK AO2 LTG DSNT S =
2016-05-23 17:15 METAR KOKV 232115Z AUTO 34004KT 10SM SCT060 SCT075 SCT085 23/11 A2992 RMK AO2 =
2016-05-23 16:55 METAR KOKV 232055Z AUTO 04003KT 10SM SCT060 SCT075 BKN085 24/11 A2992 RMK AO2 =
2016-05-23 16:35 METAR KOKV 232035Z AUTO 31006KT 10SM SCT060 SCT075 BKN085 23/11 A2992 RMK AO2
                 LTG DSNT N SE AND W =
2016-05-23 16:15 METAR KOKV 232015Z AUTO 34006KT 10SM SCT060 SCT110 24/10 A2993 RMK AO2 LTG DSNT
                 SE =
2016-05-23 15:55 METAR KOKV 231955Z AUTO 31005KT 10SM SCT050 SCT065 SCT110 23/11 A2993 RMK AO2
                 LTG DSNT E =
2016-05-23 15:35 METAR KOKV 231935Z AUTO 34006KT 10SM SCT050 SCT120 23/10 A2994 RMK AO2 LTG DSNT
                 S AND NW =
2016-05-23 15:15 METAR KOKV 231915Z AUTO 34003KT 10SM SCT120 22/12 A2995 RMK AO2 LTG DSNT E AND
                 SE =
2016-05-23 14:55 METAR KOKV 231855Z AUTO 01003KT 10SM CLR 22/11 A2996 RMK AO2 LTG DSNT SW =
2016-05-23 14:35 METAR KOKV 231835Z AUTO 29004KT 10SM CLR 22/12 A2996 RMK AO2 LTG DSNT SW =
2016-05-23 14:15 METAR KOKV 231815Z AUTO 00000KT 10SM SCT045 SCT120 22/12 A2997 RMK AO2 =
2016-05-23 13:55 METAR KOKV 231755Z AUTO 06003KT 10SM SCT047 BKN070 21/11 A2997 RMK AO2 =
2016-05-23 13:35 METAR KOKV 231735Z AUTO 36003KT 10SM SCT043 SCT060 SCT070 21/11 A2998 RMK AO2 =
2016-05-23 13:15 METAR KOKV 231715Z AUTO 36006KT 10SM BKN043 BKN055 BKN065 21/12 A2998 RMK AO2 =
2016-05-23 12:55 METAR KOKV 231655Z AUTO 03003KT 10SM SCT040 SCT070 22/12 A2998 RMK AO2 =
2016-05-23 12:35 METAR KOKV 231635Z AUTO 32005KT 10SM CLR 21/12 A2998 RMK AO2 =
2016-05-23 12:15 METAR KOKV 231615Z AUTO 04003KT 10SM BKN033 BKN085 20/12 A2999 RMK AO2 =
2016-05-23 11:55 METAR KOKV 231555Z AUTO 36004KT 10SM BKN031 BKN075 20/12 A2999 RMK AO2 =
2016-05-23 11:35 METAR KOKV 231535Z AUTO 31005KT 10SM SCT027 BKN080 20/13 A2999 RMK AO2 =
2016-05-23 11:15 METAR KOKV 231515Z AUTO 30007KT 10SM BKN024 BKN030 BKN080 18/13 A2999 RMK AO2 =
2016-05-23 10:55 METAR KOKV 231455Z AUTO 32005KT 10SM BKN024 BKN029 18/13 A2999 RMK AO2 =
2016-05-23 10:35 METAR KOKV 231435Z AUTO 06004KT 10SM SCT022 BKN065 BKN110 18/12 A2999 RMK AO2 =
2016-05-23 10:15 METAR KOKV 231415Z AUTO 35003KT 10SM SCT019 BKN065 BKN085 17/12 A2999 RMK AO2 =
2016-05-23 09:55 METAR KOKV 231355Z AUTO 32005KT 10SM SCT019 SCT065 BKN090 18/13 A2999 RMK AO2 =

Support USWX by starting your Amazon purchase here.